Time;durP1;ratioP1;P1;durP2;ratioP2;P2;SDS_P1;SDS_P2;PMS_P1;PMS_P2;Temp;Humidity;BMP_temperature;BMP_pressure;BME280_temperature;BME280_humidity;BME280_pressure;Samples;Min_cycle;Max_cycle;Signal;HPM_P1;HPM_P2
2023/07/12 00:01:10;;;;;;;37.55;18.30;;;;;;;20.54;100.00;97081.25;5050597;28;20409;-68
2023/07/12 00:03:36;;;;;;;57.47;20.53;;;;;;;20.53;100.00;97087.75;5050206;28;20415;-68
2023/07/12 00:06:04;;;;;;;31.55;15.82;;;;;;;20.48;100.00;97077.97;5050520;28;20433;-68
2023/07/12 00:08:32;;;;;;;37.47;18.02;;;;;;;20.56;100.00;97083.63;5050425;28;20455;-68
2023/07/12 00:10:58;;;;;;;28.98;15.82;;;;;;;20.55;100.00;97085.53;5050544;28;20407;-68
2023/07/12 00:13:25;;;;;;;34.35;17.17;;;;;;;20.64;100.00;97074.72;5050106;28;20424;-68
2023/07/12 00:15:52;;;;;;;39.80;17.67;;;;;;;20.52;100.00;97062.00;5050436;28;20397;-68
2023/07/12 00:18:21;;;;;;;36.45;17.33;;;;;;;20.54;100.00;97061.63;5050390;28;20421;-68
2023/07/12 00:20:49;;;;;;;34.03;16.25;;;;;;;20.61;100.00;97060.03;5050240;28;20404;-68
2023/07/12 00:23:17;;;;;;;28.90;15.80;;;;;;;20.65;100.00;97054.81;5050090;28;20855;-68
2023/07/12 00:25:47;;;;;;;32.13;16.58;;;;;;;20.60;100.00;97053.06;5050061;28;20409;-69
2023/07/12 00:28:22;;;;;;;30.65;15.52;;;;;;;20.65;100.00;97052.91;5032266;28;20397;-69
2023/07/12 00:30:49;;;;;;;23.20;13.35;;;;;;;20.67;100.00;97045.31;5035384;28;20767;-69
2023/07/12 00:33:17;;;;;;;25.35;14.13;;;;;;;20.70;100.00;97031.19;5049974;28;21081;-70
2023/07/12 00:35:44;;;;;;;26.98;14.27;;;;;;;20.71;100.00;97031.97;5050272;28;20770;-70
2023/07/12 00:38:16;;;;;;;29.88;13.65;;;;;;;20.71;100.00;97023.91;5032355;28;20421;-70
2023/07/12 00:41:02;;;;;;;24.23;13.00;;;;;;;20.73;100.00;97024.38;5050253;28;20401;-70
2023/07/12 00:43:34;;;;;;;32.47;14.07;;;;;;;20.80;100.00;97030.84;5049837;28;20393;-70
2023/07/12 00:46:02;;;;;;;26.02;13.00;;;;;;;20.64;100.00;97039.78;5050427;28;20410;-70
2023/07/12 00:48:29;;;;;;;22.58;13.10;;;;;;;20.67;100.00;97036.44;5047912;28;20705;-70
2023/07/12 00:50:55;;;;;;;25.05;13.75;;;;;;;20.72;100.00;97037.03;5036161;28;20492;-69
2023/07/12 00:53:23;;;;;;;17.33;10.83;;;;;;;20.71;100.00;97042.75;5052615;28;20480;-69
2023/07/12 00:56:03;;;;;;;27.05;13.35;;;;;;;20.71;100.00;97040.06;5054134;28;20425;-70
2023/07/12 00:58:37;;;;;;;22.83;13.20;;;;;;;20.68;100.00;97033.41;5053929;28;20413;-70
2023/07/12 01:01:05;;;;;;;24.98;13.05;;;;;;;20.62;100.00;97029.34;5054177;28;20749;-70
2023/07/12 01:03:36;;;;;;;25.58;13.55;;;;;;;20.64;100.00;97018.25;5053656;28;20428;-71
2023/07/12 01:06:04;;;;;;;21.98;12.38;;;;;;;20.66;100.00;97010.66;5054046;28;20397;-70
2023/07/12 01:08:31;;;;;;;20.67;12.45;;;;;;;20.66;100.00;97013.34;5053857;28;20400;-70
2023/07/12 01:11:01;;;;;;;26.83;13.35;;;;;;;20.66;100.00;97011.44;5053861;28;20407;-70
2023/07/12 01:13:29;;;;;;;24.10;12.63;;;;;;;20.69;100.00;97000.03;5053475;28;20398;-70
2023/07/12 01:15:57;;;;;;;30.27;14.73;;;;;;;20.70;100.00;96984.69;5053782;28;20994;-70
2023/07/12 01:18:23;;;;;;;20.98;12.10;;;;;;;20.55;100.00;96964.50;5052082;28;20417;-70
2023/07/12 01:21:05;;;;;;;27.42;13.50;;;;;;;20.60;100.00;96944.72;5038931;28;20937;-70
2023/07/12 01:23:31;;;;;;;19.80;11.02;;;;;;;20.53;100.00;96930.97;5035378;28;20405;-70
2023/07/12 01:26:18;;;;;;;18.10;10.95;;;;;;;20.59;100.00;96937.78;5053419;28;20830;-70
2023/07/12 01:28:45;;;;;;;24.70;12.45;;;;;;;20.79;100.00;96943.16;5053540;28;20868;-70
2023/07/12 01:31:11;;;;;;;27.58;13.70;;;;;;;20.83;100.00;96960.22;5053604;28;20405;-70
2023/07/12 01:33:37;;;;;;;22.27;12.60;;;;;;;20.73;100.00;96984.81;5053160;28;20492;-70
2023/07/12 01:36:05;;;;;;;23.83;12.65;;;;;;;20.70;100.00;96990.06;5053500;28;20412;-70
2023/07/12 01:38:31;;;;;;;24.10;12.52;;;;;;;20.65;100.00;96992.94;5053168;28;20775;-70
2023/07/12 01:40:57;;;;;;;26.23;13.48;;;;;;;20.70;100.00;96958.56;5053379;28;20406;-70
2023/07/12 01:43:23;;;;;;;29.48;13.20;;;;;;;20.74;100.00;96908.41;5053096;28;20829;-70
2023/07/12 01:45:50;;;;;;;29.17;13.50;;;;;;;20.64;100.00;96860.38;5053303;28;20467;-70
2023/07/12 01:48:16;;;;;;;37.08;15.27;;;;;;;20.53;100.00;96813.47;5053123;28;20746;-70
2023/07/12 01:50:42;;;;;;;29.52;14.18;;;;;;;20.51;100.00;96813.03;5040719;28;20468;-71
2023/07/12 01:53:10;;;;;;;27.55;14.65;;;;;;;20.26;100.00;96844.31;5048928;28;20501;-70
2023/07/12 01:55:37;;;;;;;25.33;14.00;;;;;;;20.33;100.00;96849.16;5052750;28;20433;-71
2023/07/12 01:58:04;;;;;;;38.83;16.15;;;;;;;20.28;100.00;96858.22;5053013;28;20417;-70
2023/07/12 02:00:30;;;;;;;29.35;14.82;;;;;;;20.27;100.00;96853.16;5052883;28;20468;-71
2023/07/12 02:02:56;;;;;;;31.63;15.80;;;;;;;20.25;100.00;96844.63;5052770;28;20451;-70
2023/07/12 02:05:22;;;;;;;31.48;15.02;;;;;;;20.15;100.00;96856.53;5051799;28;20405;-70
2023/07/12 02:07:49;;;;;;;26.10;14.18;;;;;;;20.11;100.00;96861.00;5052693;28;20472;-71
2023/07/12 02:10:18;;;;;;;35.75;16.27;;;;;;;20.14;100.00;96871.13;5052626;28;20942;-71
2023/07/12 02:12:44;;;;;;;29.70;15.35;;;;;;;20.15;100.00;96878.03;5052613;28;20740;-70
2023/07/12 02:15:13;;;;;;;26.35;14.13;;;;;;;20.10;100.00;96870.97;5052503;28;20562;-70
2023/07/12 02:17:39;;;;;;;33.28;17.10;;;;;;;20.14;100.00;96879.19;5052561;28;20507;-71
2023/07/12 02:20:07;;;;;;;29.10;15.47;;;;;;;20.15;100.00;96880.72;5052463;28;20402;-70
2023/07/12 02:22:35;;;;;;;27.37;14.63;;;;;;;20.14;100.00;96873.00;5052193;28;20417;-71
2023/07/12 02:25:01;;;;;;;22.87;13.13;;;;;;;20.18;100.00;96874.72;5052225;28;20905;-71
2023/07/12 02:27:29;;;;;;;30.20;14.88;;;;;;;20.19;100.00;96873.59;5034538;28;20424;-71
2023/07/12 02:29:55;;;;;;;24.55;14.10;;;;;;;20.24;100.00;96878.78;5052408;28;20393;-71
2023/07/12 02:32:22;;;;;;;27.02;14.90;;;;;;;20.23;100.00;96881.78;5052125;28;20921;-70
2023/07/12 02:34:49;;;;;;;29.05;14.23;;;;;;;20.19;100.00;96884.34;5052088;28;20459;-70
2023/07/12 02:37:16;;;;;;;30.48;15.00;;;;;;;20.22;100.00;96881.03;5035649;28;20395;-71
2023/07/12 02:39:43;;;;;;;27.50;14.33;;;;;;;20.20;100.00;96883.25;5052682;28;20818;-70
2023/07/12 02:42:09;;;;;;;29.55;15.65;;;;;;;20.21;100.00;96884.84;5052023;28;20455;-70
2023/07/12 02:44:39;;;;;;;24.50;13.03;;;;;;;20.16;100.00;96884.22;5051792;28;20818;-70
2023/07/12 02:47:06;;;;;;;28.38;14.57;;;;;;;20.13;100.00;96882.97;5051953;28;20437;-70
2023/07/12 02:49:32;;;;;;;27.27;14.85;;;;;;;20.12;100.00;96889.47;5051805;28;20416;-70
2023/07/12 02:51:58;;;;;;;29.55;14.82;;;;;;;20.14;100.00;96892.63;5051762;28;20405;-71
2023/07/12 02:54:24;;;;;;;30.25;15.93;;;;;;;20.05;100.00;96875.75;5051511;28;20436;-70
2023/07/12 02:56:51;;;;;;;25.23;14.05;;;;;;;20.13;100.00;96877.59;5051940;28;20942;-70
2023/07/12 02:59:17;;;;;;;30.77;15.23;;;;;;;20.03;100.00;96869.91;5051551;28;20923;-70
2023/07/12 03:01:46;;;;;;;28.85;15.38;;;;;;;19.98;100.00;96870.88;5051577;28;20429;-70
2023/07/12 03:04:12;;;;;;;27.00;15.30;;;;;;;20.06;100.00;96880.81;5051520;28;20413;-70
2023/07/12 03:06:38;;;;;;;31.10;15.85;;;;;;;20.06;100.00;96882.69;5051562;28;20501;-72
2023/07/12 03:09:05;;;;;;;32.87;16.83;;;;;;;20.00;100.00;96894.72;5033605;28;20416;-72
2023/07/12 03:11:32;;;;;;;26.67;14.83;;;;;;;20.05;100.00;96886.50;5051348;28;20410;-71
2023/07/12 03:13:58;;;;;;;35.83;17.02;;;;;;;20.07;100.00;96892.34;5051346;28;20794;-71
2023/07/12 03:16:24;;;;;;;36.77;17.57;;;;;;;19.94;100.00;96904.88;5046164;28;20525;-70
2023/07/12 03:18:55;;;;;;;31.70;17.00;;;;;;;19.95;100.00;96902.97;5027061;28;20428;-70
2023/07/12 03:21:21;;;;;;;26.65;15.40;;;;;;;19.87;100.00;96903.78;5051635;28;20463;-70
2023/07/12 03:23:48;;;;;;;38.10;17.92;;;;;;;19.96;100.00;96901.88;5051528;28;20393;-70
2023/07/12 03:26:15;;;;;;;34.30;17.83;;;;;;;19.94;100.00;96896.00;5051567;28;20833;-70
2023/07/12 03:28:41;;;;;;;35.58;17.77;;;;;;;19.97;100.00;96893.47;5051552;28;20798;-70
2023/07/12 03:31:10;;;;;;;37.60;18.27;;;;;;;19.97;100.00;96896.16;5051598;28;20480;-70
2023/07/12 03:33:37;;;;;;;29.92;16.70;;;;;;;19.95;100.00;96890.31;5051097;28;20477;-69
2023/07/12 03:36:05;;;;;;;44.40;20.45;;;;;;;20.00;100.00;96908.16;5029986;28;20415;-69
2023/07/12 03:38:32;;;;;;;41.50;19.47;;;;;;;19.96;100.00;96908.03;5041208;28;21048;-69
2023/07/12 03:41:00;;;;;;;44.70;20.42;;;;;;;19.99;100.00;96922.72;5046596;28;20469;-70
2023/07/12 03:43:26;;;;;;;34.75;17.88;;;;;;;19.92;100.00;96915.13;5041726;28;20409;-70
2023/07/12 03:45:53;;;;;;;33.80;17.77;;;;;;;19.95;100.00;96914.50;5045177;28;20445;-69
2023/07/12 03:48:19;;;;;;;36.75;19.00;;;;;;;20.05;100.00;96924.91;5030307;28;20496;-70
2023/07/12 03:50:48;;;;;;;42.83;20.23;;;;;;;20.00;100.00;96940.38;5050718;28;20464;-69
2023/07/12 03:53:15;;;;;;;43.37;21.53;;;;;;;19.98;100.00;96956.84;5050701;28;20397;-69
2023/07/12 03:55:43;;;;;;;33.05;17.60;;;;;;;19.93;100.00;96948.16;5050541;28;20902;-70
2023/07/12 03:58:12;;;;;;;35.70;18.15;;;;;;;19.89;100.00;96933.81;5050639;28;20420;-70
2023/07/12 04:00:39;;;;;;;35.53;17.80;;;;;;;19.89;100.00;96918.47;5050735;28;20421;-69
2023/07/12 04:03:08;;;;;;;41.13;19.17;;;;;;;19.89;100.00;96917.69;5050405;28;20409;-69
2023/07/12 04:05:36;;;;;;;38.90;19.90;;;;;;;19.91;100.00;96926.22;5050292;28;20433;-70
2023/07/12 04:08:03;;;;;;;39.83;20.02;;;;;;;19.94;100.00;96926.34;5050569;28;20419;-69
2023/07/12 04:10:31;;;;;;;42.17;21.17;;;;;;;19.98;100.00;96931.88;5050426;28;20474;-69
2023/07/12 04:12:57;;;;;;;47.45;22.42;;;;;;;19.95;100.00;96949.44;5050051;28;20393;-69
2023/07/12 04:15:24;;;;;;;41.83;19.30;;;;;;;19.99;100.00;96953.06;5050641;28;20805;-69
2023/07/12 04:17:50;;;;;;;39.78;19.73;;;;;;;20.01;100.00;96958.09;5050788;28;20444;-70
2023/07/12 04:20:16;;;;;;;45.13;22.73;;;;;;;19.98;100.00;96983.72;5050778;28;20413;-69
2023/07/12 04:22:43;;;;;;;41.13;21.17;;;;;;;19.98;100.00;96985.63;5050720;28;20408;-69
2023/07/12 04:25:10;;;;;;;54.35;23.95;;;;;;;19.99;100.00;96982.63;5050518;28;20436;-69
2023/07/12 04:27:37;;;;;;;44.08;21.40;;;;;;;20.00;100.00;96981.47;5050380;28;20458;-69
2023/07/12 04:30:05;;;;;;;54.88;23.40;;;;;;;20.01;100.00;96987.66;5050729;28;20761;-71
2023/07/12 04:32:32;;;;;;;50.28;22.65;;;;;;;20.01;100.00;96984.97;5050309;28;20456;-69
2023/07/12 04:34:58;;;;;;;39.23;20.00;;;;;;;20.04;100.00;96973.59;5050443;28;20740;-70
2023/07/12 04:37:25;;;;;;;42.20;21.08;;;;;;;20.06;100.00;96969.47;5047102;28;20498;-70
2023/07/12 04:39:51;;;;;;;50.70;23.43;;;;;;;20.13;100.00;96973.56;5043541;28;20556;-70
2023/07/12 04:42:17;;;;;;;44.92;21.35;;;;;;;20.17;100.00;96979.84;5049997;28;20459;-70
2023/07/12 04:44:45;;;;;;;50.72;23.17;;;;;;;20.18;100.00;96984.91;5050078;28;20465;-70
2023/07/12 04:47:11;;;;;;;60.22;24.75;;;;;;;20.22;100.00;96974.31;5043621;28;20408;-69
2023/07/12 04:49:38;;;;;;;60.67;25.92;;;;;;;20.22;100.00;96969.72;5033887;28;20463;-69
2023/07/12 04:52:05;;;;;;;57.73;25.20;;;;;;;20.15;100.00;96971.34;5032018;28;20427;-69
2023/07/12 04:54:34;;;;;;;56.65;24.92;;;;;;;20.21;100.00;96972.72;5027208;28;20410;-69
2023/07/12 04:57:00;;;;;;;50.78;23.70;;;;;;;20.22;100.00;96977.00;5028062;28;20439;-69
2023/07/12 04:59:26;;;;;;;53.50;23.85;;;;;;;20.20;100.00;96973.84;5028904;28;20419;-69
2023/07/12 05:01:54;;;;;;;51.17;24.17;;;;;;;20.17;100.00;96969.88;5028023;28;20473;-69
2023/07/12 05:04:20;;;;;;;61.47;24.70;;;;;;;20.16;100.00;96973.69;5042282;28;20483;-68
2023/07/12 05:06:46;;;;;;;54.80;24.80;;;;;;;20.14;100.00;96977.81;5031217;28;20434;-68
2023/07/12 05:09:12;;;;;;;52.00;23.52;;;;;;;20.25;100.00;96979.03;5030859;28;20442;-69
2023/07/12 05:11:39;;;;;;;50.00;24.13;;;;;;;20.22;100.00;96983.16;5021758;28;20849;-68
2023/07/12 05:14:05;;;;;;;61.03;26.83;;;;;;;20.24;100.00;96988.97;5029282;28;20413;-68
2023/07/12 05:16:31;;;;;;;69.93;28.50;;;;;;;20.24;100.00;96996.25;5035279;28;20474;-68
2023/07/12 05:18:58;;;;;;;57.38;26.50;;;;;;;20.29;100.00;96996.88;5037588;28;20419;-69
2023/07/12 05:21:25;;;;;;;66.13;28.10;;;;;;;20.22;100.00;96998.50;5038093;28;20412;-68
2023/07/12 05:23:51;;;;;;;70.10;28.10;;;;;;;20.17;100.00;97012.09;5039219;28;20412;-68
2023/07/12 05:26:17;;;;;;;53.13;24.88;;;;;;;20.20;100.00;96998.03;5039858;28;20913;-69
2023/07/12 05:28:46;;;;;;;44.90;23.23;;;;;;;20.26;100.00;97004.78;5037586;28;20406;-69
2023/07/12 05:31:14;;;;;;;59.70;27.55;;;;;;;20.32;100.00;97009.66;5034374;28;20405;-68
2023/07/12 05:33:43;;;;;;;47.22;24.85;;;;;;;20.40;100.00;97008.88;5042024;28;20459;-69
2023/07/12 05:36:11;;;;;;;65.25;28.38;;;;;;;20.35;100.00;97006.38;5041674;28;20397;-68
2023/07/12 05:38:37;;;;;;;55.63;26.60;;;;;;;20.42;100.00;97011.25;5040117;28;20424;-69
2023/07/12 05:41:04;;;;;;;70.75;30.20;;;;;;;20.42;100.00;97013.94;5044742;28;20746;-68
2023/07/12 05:43:30;;;;;;;82.70;32.40;;;;;;;20.26;100.00;97015.56;5037109;28;20410;-68
2023/07/12 05:45:56;;;;;;;66.43;29.63;;;;;;;20.28;100.00;97018.72;5032871;28;20403;-68
2023/07/12 05:48:23;;;;;;;55.58;25.85;;;;;;;20.35;100.00;97008.28;5044609;28;20625;-68
2023/07/12 05:50:51;;;;;;;58.40;27.58;;;;;;;20.40;100.00;97002.72;5042334;28;20407;-68
2023/07/12 05:53:19;;;;;;;73.00;32.00;;;;;;;20.28;100.00;97008.75;5032897;28;20489;-68
2023/07/12 05:55:45;;;;;;;67.03;30.08;;;;;;;20.42;100.00;97005.88;5035287;28;20459;-68
2023/07/12 05:58:12;;;;;;;66.45;30.20;;;;;;;20.52;100.00;96996.66;5046880;28;20444;-67
2023/07/12 06:00:38;;;;;;;58.97;28.77;;;;;;;20.62;100.00;97005.13;5028031;28;20492;-67
2023/07/12 06:03:05;;;;;;;69.72;30.85;;;;;;;20.61;100.00;97006.25;5037146;28;20754;-67
2023/07/12 06:05:31;;;;;;;55.15;27.27;;;;;;;20.73;100.00;97002.88;5035690;28;20427;-68
2023/07/12 06:07:58;;;;;;;68.63;31.77;;;;;;;20.79;100.00;97007.72;5018841;28;20465;-67
2023/07/12 06:10:25;;;;;;;62.37;28.63;;;;;;;20.85;100.00;97000.25;5031329;28;20839;-68
2023/07/12 06:12:51;;;;;;;71.50;31.60;;;;;;;20.88;100.00;97009.56;5035953;28;20410;-68
2023/07/12 06:15:18;;;;;;;73.82;33.53;;;;;;;20.76;100.00;97007.56;5038112;28;20434;-69
2023/07/12 06:17:44;;;;;;;76.72;33.58;;;;;;;20.63;100.00;97017.47;5038322;28;20820;-69
2023/07/12 06:20:11;;;;;;;70.82;32.97;;;;;;;20.78;100.00;97021.50;5040653;28;20412;-69
2023/07/12 06:22:37;;;;;;;73.95;32.13;;;;;;;20.80;100.00;97022.75;5041672;28;20409;-68
2023/07/12 06:25:05;;;;;;;70.72;32.13;;;;;;;20.84;100.00;97022.88;5040149;28;20509;-69
2023/07/12 06:27:33;;;;;;;85.22;34.33;;;;;;;20.80;100.00;97017.38;5038193;28;20439;-68
2023/07/12 06:29:59;;;;;;;75.47;33.05;;;;;;;20.69;100.00;97024.22;5033965;28;20445;-69
2023/07/12 06:32:25;;;;;;;66.22;31.38;;;;;;;20.84;100.00;97025.56;5029545;28;20408;-69
2023/07/12 06:34:51;;;;;;;56.80;27.27;;;;;;;21.00;100.00;97028.47;5012040;28;20469;-71
2023/07/12 06:37:18;;;;;;;63.20;30.52;;;;;;;21.13;100.00;97027.44;5029559;28;20399;-68
2023/07/12 06:39:44;;;;;;;74.43;33.42;;;;;;;21.29;100.00;97024.97;5045158;28;20450;-68
2023/07/12 06:42:10;;;;;;;59.15;29.83;;;;;;;21.42;100.00;97026.63;5048348;28;20413;-68
2023/07/12 06:44:37;;;;;;;76.90;33.53;;;;;;;21.42;100.00;97024.72;5051809;28;20402;-68
2023/07/12 06:47:04;;;;;;;72.70;33.00;;;;;;;21.50;100.00;97028.47;5051924;28;20412;-68
2023/07/12 06:49:30;;;;;;;72.33;32.77;;;;;;;21.48;100.00;97033.38;5036068;28;20421;-68
2023/07/12 06:51:57;;;;;;;67.25;31.60;;;;;;;21.52;100.00;97037.00;5045823;28;20496;-69
2023/07/12 06:54:23;;;;;;;66.57;31.63;;;;;;;21.50;100.00;97045.38;5042706;28;20972;-69
2023/07/12 06:56:50;;;;;;;69.10;32.47;;;;;;;21.56;100.00;97046.00;5045132;28;20405;-69
2023/07/12 06:59:16;;;;;;;71.53;32.27;;;;;;;21.62;100.00;97045.47;5033453;28;20502;-69
2023/07/12 07:01:47;;;;;;;72.00;31.70;;;;;;;21.53;100.00;97049.34;5051262;28;20405;-69
2023/07/12 07:04:13;;;;;;;47.97;25.20;;;;;;;21.80;100.00;97053.41;5051517;28;20402;-69
2023/07/12 07:06:40;;;;;;;59.43;29.33;;;;;;;21.71;100.00;97050.00;5051557;28;20510;-69
2023/07/12 07:09:06;;;;;;;53.35;26.65;;;;;;;21.79;100.00;97057.22;5051577;28;20405;-68
2023/07/12 07:11:32;;;;;;;45.42;23.83;;;;;;;21.79;100.00;97059.91;5051317;28;20447;-68
2023/07/12 07:13:58;;;;;;;59.22;27.75;;;;;;;21.68;100.00;97072.97;5037515;28;20414;-68
2023/07/12 07:16:27;;;;;;;60.58;27.25;;;;;;;21.65;100.00;97072.88;5030907;28;20443;-68
2023/07/12 07:18:54;;;;;;;49.63;24.90;;;;;;;21.74;100.00;97074.34;5031182;28;20454;-67
2023/07/12 07:21:21;;;;;;;51.25;25.30;;;;;;;21.58;100.00;97067.97;5048772;28;20833;-67
2023/07/12 07:23:47;;;;;;;56.25;27.13;;;;;;;21.44;100.00;97067.47;5044881;28;20441;-67
2023/07/12 07:26:13;;;;;;;42.65;22.13;;;;;;;21.67;100.00;97068.72;5028737;28;20415;-67
2023/07/12 07:28:40;;;;;;;49.30;24.77;;;;;;;21.61;100.00;97078.13;5051609;28;20810;-68
2023/07/12 07:31:07;;;;;;;56.38;27.42;;;;;;;21.80;100.00;97072.25;5050871;28;20440;-68
2023/07/12 07:33:33;;;;;;;41.47;22.02;;;;;;;21.86;100.00;97077.09;5051044;28;20709;-68
2023/07/12 07:36:00;;;;;;;51.15;24.27;;;;;;;21.70;100.00;97075.34;5051333;28;20428;-68
2023/07/12 07:38:28;;;;;;;51.08;24.55;;;;;;;21.85;100.00;97080.13;5051103;28;20421;-67
2023/07/12 07:40:56;;;;;;;43.10;21.13;;;;;;;21.95;100.00;97085.13;5051101;28;20401;-68
2023/07/12 07:43:22;;;;;;;43.13;22.40;;;;;;;22.00;100.00;97082.25;5050522;28;20397;-68
2023/07/12 07:45:49;;;;;;;47.60;23.15;;;;;;;21.96;100.00;97081.28;5051128;28;20412;-69
2023/07/12 07:48:15;;;;;;;38.00;18.47;;;;;;;21.97;100.00;97078.28;5033113;28;20488;-69
2023/07/12 07:50:42;;;;;;;40.85;19.88;;;;;;;22.06;100.00;97085.50;5051020;28;20401;-69
2023/07/12 07:53:11;;;;;;;54.42;22.92;;;;;;;21.77;100.00;97084.47;5051017;28;20899;-69
2023/07/12 07:55:41;;;;;;;35.42;20.00;;;;;;;22.09;100.00;97090.25;5050732;28;20437;-69
2023/07/12 07:58:09;;;;;;;34.67;17.60;;;;;;;22.20;100.00;97081.38;5043444;28;20751;-70
2023/07/12 08:00:36;;;;;;;41.70;18.90;;;;;;;21.96;100.00;97083.97;5050522;28;20944;-69
2023/07/12 08:03:02;;;;;;;35.83;19.45;;;;;;;22.10;100.00;97084.53;5042925;28;20780;-70
2023/07/12 08:05:29;;;;;;;39.33;19.17;;;;;;;22.13;100.00;97083.06;5044081;28;20484;-69
2023/07/12 08:07:56;;;;;;;34.42;16.98;;;;;;;21.90;100.00;97093.38;5042492;28;20457;-68
2023/07/12 08:10:24;;;;;;;32.63;17.00;;;;;;;22.36;100.00;97079.63;5038701;28;20414;-68
2023/07/12 08:12:50;;;;;;;44.40;20.20;;;;;;;22.19;100.00;97079.81;5043974;28;20411;-68
2023/07/12 08:15:18;;;;;;;29.00;16.40;;;;;;;22.47;100.00;97093.50;5050438;28;20429;-69
2023/07/12 08:17:44;;;;;;;27.83;14.13;;;;;;;22.06;100.00;97088.19;5050646;28;20393;-68
2023/07/12 08:20:11;;;;;;;35.58;16.77;;;;;;;22.42;100.00;97099.06;5050659;28;20432;-68
2023/07/12 08:22:37;;;;;;;23.23;12.75;;;;;;;22.57;100.00;97092.25;5050476;28;20413;-69
2023/07/12 08:25:04;;;;;;;24.50;14.10;;;;;;;22.74;100.00;97097.47;5050408;28;20477;-69
2023/07/12 08:27:31;;;;;;;26.63;14.48;;;;;;;22.64;100.00;97098.66;5050588;28;20496;-68
2023/07/12 08:29:59;;;;;;;20.70;12.32;;;;;;;22.73;100.00;97101.25;5050674;28;20962;-68
2023/07/12 08:32:27;;;;;;;20.95;11.82;;;;;;;22.72;100.00;97110.47;5050363;28;20401;-68
2023/07/12 08:34:54;;;;;;;22.02;12.18;;;;;;;22.65;100.00;97110.25;5050490;28;20429;-68
2023/07/12 08:37:20;;;;;;;19.17;11.27;;;;;;;22.90;100.00;97103.00;5050506;28;20455;-68
2023/07/12 08:39:46;;;;;;;18.92;11.20;;;;;;;22.88;100.00;97107.94;5050458;28;20409;-68
2023/07/12 08:42:15;;;;;;;18.08;10.52;;;;;;;23.12;100.00;97116.81;5042258;28;20422;-68
2023/07/12 08:44:42;;;;;;;15.43;9.27;;;;;;;23.28;100.00;97127.72;5034806;28;20488;-68
2023/07/12 08:47:16;;;;;;;14.25;8.70;;;;;;;23.29;100.00;97125.81;5050448;28;20496;-68
2023/07/12 08:49:42;;;;;;;11.45;7.75;;;;;;;23.13;100.00;97128.41;5050394;28;20389;-68
2023/07/12 08:52:16;;;;;;;11.37;7.37;;;;;;;23.49;100.00;97125.69;5050238;28;20895;-68
2023/07/12 08:54:43;;;;;;;10.88;7.50;;;;;;;23.56;100.00;97127.03;5050316;28;20394;-68
2023/07/12 08:57:16;;;;;;;9.57;6.95;;;;;;;23.48;100.00;97124.13;5050316;28;20408;-68
2023/07/12 08:59:46;;;;;;;12.20;7.13;;;;;;;23.61;100.00;97122.16;5050380;28;20421;-68
2023/07/12 09:02:20;;;;;;;7.78;6.35;;;;;;;23.49;100.00;97123.00;5050221;28;20488;-68
2023/07/12 09:04:46;;;;;;;13.43;7.27;;;;;;;23.65;100.00;97119.56;5050131;28;20408;-68
2023/07/12 09:07:23;;;;;;;12.70;7.35;;;;;;;23.85;100.00;97119.41;5049895;28;20452;-68
2023/07/12 09:09:50;;;;;;;7.90;5.80;;;;;;;23.96;100.00;97125.13;5041328;28;20451;-68
2023/07/12 09:12:26;;;;;;;8.23;5.63;;;;;;;24.11;100.00;97135.19;5034056;28;20832;-69
2023/07/12 09:14:57;;;;;;;10.60;6.53;;;;;;;24.25;100.00;97124.00;5039873;28;20490;-68
2023/07/12 09:17:27;;;;;;;7.53;5.45;;;;;;;24.39;100.00;97129.78;5051895;28;20397;-69
2023/07/12 09:19:53;;;;;;;10.50;6.00;;;;;;;24.46;100.00;97129.19;5052751;28;20417;-69
2023/07/12 09:22:20;;;;;;;7.45;5.10;;;;;;;24.52;100.00;97122.38;5053313;28;20463;-68
2023/07/12 09:24:51;;;;;;;10.23;5.55;;;;;;;24.60;100.00;97127.63;5052178;28;20455;-69
2023/07/12 09:27:21;;;;;;;11.77;4.45;;;;;;;24.07;100.00;97112.66;5053330;28;20397;-68
2023/07/12 09:29:48;;;;;;;8.75;5.03;;;;;;;24.27;100.00;97110.91;5053546;28;20496;-68
2023/07/12 09:32:22;;;;;;;7.83;4.80;;;;;;;24.37;100.00;97112.31;5053145;28;20405;-68
2023/07/12 09:34:50;;;;;;;7.00;4.93;;;;;;;24.47;100.00;97120.72;5053176;28;20405;-69
2023/07/12 09:37:18;;;;;;;9.75;5.40;;;;;;;24.71;100.00;97106.25;5034118;28;20461;-67
2023/07/12 09:39:54;;;;;;;9.85;4.28;;;;;;;24.38;100.00;97086.84;5041793;28;20796;-68
2023/07/12 09:42:24;;;;;;;8.48;4.72;;;;;;;24.43;100.00;97083.91;5037343;28;20495;-68
2023/07/12 09:44:51;;;;;;;7.50;4.90;;;;;;;24.71;100.00;97087.31;5017352;28;20508;-69
2023/07/12 09:47:34;;;;;;;6.97;3.55;;;;;;;24.10;100.00;97076.81;5036480;28;20496;-68
2023/07/12 09:50:10;;;;;;;8.20;4.30;;;;;;;23.88;100.00;97069.28;5033101;28;20760;-67
2023/07/12 09:52:47;;;;;;;13.15;4.35;;;;;;;23.98;100.00;97085.00;5039195;28;20438;-67
2023/07/12 09:55:19;;;;;;;8.40;5.10;;;;;;;24.62;100.00;97086.69;5038367;28;20425;-69
2023/07/12 09:57:58;;;;;;;7.18;5.03;;;;;;;24.84;100.00;97077.16;5039657;28;20403;-68
2023/07/12 10:00:31;;;;;;;5.80;4.20;;;;;;;24.92;100.00;97074.28;5036938;28;20411;-69
2023/07/12 10:03:15;;;;;;;8.73;4.55;;;;;;;25.06;100.00;97092.78;5036179;28;20426;-68
2023/07/12 10:05:46;;;;;;;7.77;4.07;;;;;;;24.94;100.00;97087.50;5031259;28;20464;-68
2023/07/12 10:08:16;;;;;;;5.03;3.92;;;;;;;25.29;100.00;97088.28;5040931;28;20396;-68
2023/07/12 10:10:50;;;;;;;7.57;4.65;;;;;;;25.44;100.00;97095.59;5047040;28;20437;-69
2023/07/12 10:13:34;;;;;;;6.63;4.57;;;;;;;25.74;100.00;97089.66;5052465;28;20764;-68
2023/07/12 10:16:02;;;;;;;7.55;4.70;;;;;;;25.89;100.00;97091.50;5052659;28;20405;-69
2023/07/12 10:18:34;;;;;;;10.10;4.67;;;;;;;25.66;100.00;97074.38;5052446;28;20592;-68
2023/07/12 10:21:01;;;;;;;9.68;4.10;;;;;;;25.57;100.00;97074.56;5043720;28;20503;-67
2023/07/12 10:23:34;;;;;;;8.38;4.75;;;;;;;25.33;100.00;97072.91;5052325;28;20402;-69
2023/07/12 10:26:03;;;;;;;7.83;4.60;;;;;;;25.30;100.00;97076.31;5045281;28;20415;-69
2023/07/12 10:28:43;;;;;;;5.10;4.25;;;;;;;25.54;100.00;97085.34;5033555;28;20411;-69
2023/07/12 10:31:27;;;;;;;7.03;4.60;;;;;;;25.71;100.00;97072.16;5037026;28;20868;-70
2023/07/12 10:34:07;;;;;;;5.50;4.33;;;;;;;25.91;100.00;97078.38;5051919;28;20397;-69
2023/07/12 10:36:34;;;;;;;8.70;4.80;;;;;;;25.94;100.00;97074.19;5042979;28;20957;-69
2023/07/12 10:39:01;;;;;;;6.00;4.13;;;;;;;25.93;100.00;97080.75;5046433;28;20466;-69
2023/07/12 10:41:35;;;;;;;6.53;4.05;;;;;;;25.87;100.00;97080.22;5042502;28;20490;-69
2023/07/12 10:44:07;;;;;;;6.65;4.22;;;;;;;25.83;100.00;97079.38;5029593;28;20411;-69
2023/07/12 10:46:36;;;;;;;5.53;3.85;;;;;;;25.76;100.00;97080.03;5013339;28;22109;-69
2023/07/12 10:49:11;;;;;;;8.38;4.40;;;;;;;25.81;100.00;97070.81;5033037;28;20395;-69
2023/07/12 10:51:40;;;;;;;7.43;4.57;;;;;;;25.62;100.00;97076.25;5041516;28;20504;-69
2023/07/12 10:54:38;;;;;;;4.77;3.83;;;;;;;25.69;100.00;97085.31;5047131;28;20403;-69
2023/07/12 10:57:21;;;;;;;6.30;4.47;;;;;;;25.79;100.00;97063.03;5026173;28;20772;-69
2023/07/12 10:59:57;;;;;;;8.07;4.57;;;;;;;25.86;100.00;97075.19;5032781;28;20430;-67
2023/07/12 11:02:28;;;;;;;5.68;4.28;;;;;;;25.93;100.00;97067.19;5037732;28;20411;-68
2023/07/12 11:04:55;;;;;;;5.95;4.00;;;;;;;26.07;100.00;97072.88;5040905;28;20403;-68
2023/07/12 11:07:34;;;;;;;8.60;4.57;;;;;;;26.38;100.00;97058.34;5032194;28;20419;-68
2023/07/12 11:10:16;;;;;;;7.53;4.55;;;;;;;26.23;100.00;97060.00;5035878;28;20401;-68
2023/07/12 11:12:49;;;;;;;10.82;4.88;;;;;;;26.03;100.00;97053.00;5029514;28;20453;-67
2023/07/12 11:15:21;;;;;;;8.02;4.70;;;;;;;26.00;100.00;97054.53;5038629;28;20431;-68
2023/07/12 11:18:21;;;;;;;6.82;4.72;;;;;;;25.94;100.00;97055.94;5035048;28;20420;-67